Time;durP1;ratioP1;P1;durP2;ratioP2;P2;SDS_P1;SDS_P2;PMS_P1;PMS_P2;Temp;Humidity;BMP_temperature;BMP_pressure;BME280_temperature;BME280_humidity;BME280_pressure;Samples;Min_cycle;Max_cycle;Signal;HPM_P1;HPM_P2
2023/05/13 00:00:02;;;;;;;11.38;7.78;;;;;;;;;;4968179;28;20130;-79
2023/05/13 00:02:30;;;;;;;13.55;7.05;;;;;;;;;;4987412;28;20039;-77
2023/05/13 00:04:57;;;;;;;14.48;8.00;;;;;;;;;;4998698;28;20051;-79
2023/05/13 00:07:24;;;;;;;10.68;7.15;;;;;;;;;;5001374;28;20047;-78
2023/05/13 00:10:11;;;;;;;20.17;9.75;;;;;;;;;;4974204;28;20055;-79
2023/05/13 00:12:37;;;;;;;12.82;8.45;;;;;;;;;;4989985;28;20063;-78
2023/05/13 00:15:04;;;;;;;14.07;7.63;;;;;;;;;;4955978;28;20043;-79
2023/05/13 00:17:30;;;;;;;11.10;7.47;;;;;;;;;;4956394;28;20066;-80
2023/05/13 00:19:57;;;;;;;15.52;8.43;;;;;;;;;;4971976;28;20057;-79
2023/05/13 00:22:24;;;;;;;17.45;9.18;;;;;;;;;;4956135;28;20146;-79
2023/05/13 00:24:50;;;;;;;19.70;9.15;;;;;;;;;;4973609;28;20043;-80
2023/05/13 00:27:17;;;;;;;13.73;8.50;;;;;;;;;;4972045;28;20462;-80
2023/05/13 00:29:44;;;;;;;13.23;7.97;;;;;;;;;;4962900;28;20142;-78
2023/05/13 00:32:10;;;;;;;16.55;7.93;;;;;;;;;;4951820;28;20550;-79
2023/05/13 00:34:37;;;;;;;15.55;7.97;;;;;;;;;;4936885;28;20147;-79
2023/05/13 00:37:03;;;;;;;17.60;8.75;;;;;;;;;;4935019;28;20043;-80
2023/05/13 00:39:30;;;;;;;14.52;7.95;;;;;;;;;;4952103;28;20158;-80
2023/05/13 00:41:58;;;;;;;17.00;7.40;;;;;;;;;;4956344;28;20081;-79
2023/05/13 00:44:26;;;;;;;13.45;7.57;;;;;;;;;;4969496;28;20078;-80
2023/05/13 00:46:52;;;;;;;16.05;7.85;;;;;;;;;;4963400;28;20637;-78
2023/05/13 00:49:19;;;;;;;13.55;7.72;;;;;;;;;;4971517;28;20408;-79
2023/05/13 00:51:46;;;;;;;14.82;7.68;;;;;;;;;;4987940;28;20093;-79
2023/05/13 00:54:13;;;;;;;14.30;7.05;;;;;;;;;;4955798;28;20053;-79
2023/05/13 00:56:39;;;;;;;11.65;7.25;;;;;;;;;;4986611;28;20042;-78
2023/05/13 00:59:06;;;;;;;15.98;7.32;;;;;;;;;;4971681;28;20530;-77
2023/05/13 01:01:37;;;;;;;11.82;6.75;;;;;;;;;;4983447;28;20043;-78
2023/05/13 01:04:07;;;;;;;9.25;6.07;;;;;;;;;;4973364;28;20091;-80
2023/05/13 01:06:48;;;;;;;14.82;6.32;;;;;;;;;;4932168;28;20508;-78
2023/05/13 01:09:20;;;;;;;14.43;6.82;;;;;;;;;;4948667;28;20155;-77
2023/05/13 01:11:48;;;;;;;10.40;6.88;;;;;;;;;;4949007;28;20044;-80
2023/05/13 01:14:21;;;;;;;10.23;6.85;;;;;;;;;;4950126;28;20676;-81
2023/05/13 01:16:50;;;;;;;9.85;6.50;;;;;;;;;;4965956;28;20040;-79
2023/05/13 01:19:36;;;;;;;11.95;7.13;;;;;;;;;;4933416;28;20531;-81
2023/05/13 01:22:03;;;;;;;8.73;5.07;;;;;;;;;;4949876;28;20156;-80
2023/05/13 01:24:30;;;;;;;13.32;7.85;;;;;;;;;;4949113;28;20051;-81
2023/05/13 01:26:57;;;;;;;13.88;7.97;;;;;;;;;;4933344;28;20083;-78
2023/05/13 01:29:24;;;;;;;13.20;7.70;;;;;;;;;;4938791;28;20051;-78
2023/05/13 01:31:50;;;;;;;14.30;7.32;;;;;;;;;;4937486;28;20075;-78
2023/05/13 01:34:22;;;;;;;13.40;7.75;;;;;;;;;;4959100;28;20048;-78
2023/05/13 01:36:49;;;;;;;11.02;7.60;;;;;;;;;;4940831;28;20500;-79
2023/05/13 01:39:18;;;;;;;12.70;8.38;;;;;;;;;;4952572;28;20043;-78
2023/05/13 01:41:47;;;;;;;11.80;8.30;;;;;;;;;;4936889;28;20494;-80
2023/05/13 01:44:16;;;;;;;14.60;8.05;;;;;;;;;;4951325;28;20051;-77
2023/05/13 01:46:43;;;;;;;14.27;7.95;;;;;;;;;;4950814;28;20050;-77
2023/05/13 01:49:10;;;;;;;14.52;8.18;;;;;;;;;;4953126;28;20070;-78
2023/05/13 01:51:37;;;;;;;17.05;8.50;;;;;;;;;;4934547;28;20069;-78
2023/05/13 01:54:04;;;;;;;14.25;7.70;;;;;;;;;;4955471;28;20105;-80
2023/05/13 01:56:34;;;;;;;13.48;7.95;;;;;;;;;;4971380;28;20062;-77
2023/05/13 01:59:01;;;;;;;16.48;7.60;;;;;;;;;;4970652;28;20086;-78
2023/05/13 02:01:28;;;;;;;14.43;7.15;;;;;;;;;;4955098;28;20042;-79
2023/05/13 02:04:00;;;;;;;13.38;6.95;;;;;;;;;;4978007;28;20480;-81
2023/05/13 02:06:28;;;;;;;11.15;7.18;;;;;;;;;;4935933;28;20052;-81
2023/05/13 02:08:55;;;;;;;13.05;7.55;;;;;;;;;;4919585;28;20468;-80
2023/05/13 02:11:21;;;;;;;12.45;7.07;;;;;;;;;;4935174;28;20679;-78
2023/05/13 02:13:48;;;;;;;14.40;7.55;;;;;;;;;;4949979;28;20482;-79
2023/05/13 02:16:16;;;;;;;12.77;7.13;;;;;;;;;;4950962;28;20070;-79
2023/05/13 02:18:42;;;;;;;14.35;7.47;;;;;;;;;;4919274;28;20668;-79
2023/05/13 02:21:09;;;;;;;11.45;7.32;;;;;;;;;;4918510;28;20508;-78
2023/05/13 02:23:36;;;;;;;14.15;8.00;;;;;;;;;;4937903;29;20071;-78
2023/05/13 02:26:03;;;;;;;11.85;7.88;;;;;;;;;;4954797;28;20058;-78
2023/05/13 02:28:29;;;;;;;14.15;7.40;;;;;;;;;;4917574;28;20385;-78
2023/05/13 02:30:56;;;;;;;11.60;7.13;;;;;;;;;;4933265;28;20075;-77
2023/05/13 02:33:24;;;;;;;12.82;6.82;;;;;;;;;;4918832;28;20046;-78
2023/05/13 02:35:51;;;;;;;16.77;6.38;;;;;;;;;;4935378;28;20050;-80
2023/05/13 02:38:17;;;;;;;14.02;6.28;;;;;;;;;;4945477;28;20042;-78
2023/05/13 02:40:44;;;;;;;10.15;6.78;;;;;;;;;;4964206;28;20383;-79
2023/05/13 02:43:10;;;;;;;10.82;6.65;;;;;;;;;;4979499;28;20059;-80
2023/05/13 02:45:46;;;;;;;8.88;6.32;;;;;;;;;;4972740;28;20130;-78
2023/05/13 02:48:14;;;;;;;12.52;6.63;;;;;;;;;;4988986;28;20042;-78
2023/05/13 02:50:41;;;;;;;11.48;6.47;;;;;;;;;;4971079;28;20047;-79
2023/05/13 02:53:09;;;;;;;15.07;6.55;;;;;;;;;;4971526;28;20047;-79
2023/05/13 02:55:40;;;;;;;14.07;6.70;;;;;;;;;;4951624;28;20456;-79
2023/05/13 02:58:07;;;;;;;11.80;7.00;;;;;;;;;;4968241;28;20031;-78
2023/05/13 03:00:34;;;;;;;14.45;7.07;;;;;;;;;;4935221;28;20039;-79
2023/05/13 03:03:00;;;;;;;9.25;6.88;;;;;;;;;;4947484;28;20039;-78
2023/05/13 03:05:27;;;;;;;12.77;6.18;;;;;;;;;;4988146;28;20058;-79
2023/05/13 03:07:56;;;;;;;12.13;6.72;;;;;;;;;;4988907;28;20069;-79
2023/05/13 03:10:24;;;;;;;10.90;6.45;;;;;;;;;;4956950;28;20047;-79
2023/05/13 03:12:51;;;;;;;10.50;6.55;;;;;;;;;;4962108;28;20038;-78
2023/05/13 03:15:17;;;;;;;13.77;6.00;;;;;;;;;;4980564;28;20055;-79
2023/05/13 03:17:44;;;;;;;9.35;6.10;;;;;;;;;;4989130;28;20133;-78
2023/05/13 03:20:11;;;;;;;10.32;5.90;;;;;;;;;;4989020;28;20066;-79
2023/05/13 03:22:37;;;;;;;9.05;6.15;;;;;;;;;;4972968;28;20050;-79
2023/05/13 03:25:05;;;;;;;10.52;6.70;;;;;;;;;;4957388;28;20050;-79
2023/05/13 03:27:38;;;;;;;14.45;6.88;;;;;;;;;;4972252;28;20045;-80
2023/05/13 03:30:06;;;;;;;15.68;7.03;;;;;;;;;;4947611;28;20061;-80
2023/05/13 03:32:40;;;;;;;20.55;7.18;;;;;;;;;;4953273;29;20051;-80
2023/05/13 03:35:07;;;;;;;12.60;7.38;;;;;;;;;;4952832;28;20055;-79
2023/05/13 03:37:35;;;;;;;13.93;7.47;;;;;;;;;;4953672;28;20062;-78
2023/05/13 03:40:03;;;;;;;12.98;7.57;;;;;;;;;;4968799;28;20424;-79
2023/05/13 03:42:30;;;;;;;14.10;7.35;;;;;;;;;;4968621;28;20053;-79
2023/05/13 03:45:00;;;;;;;14.65;7.53;;;;;;;;;;4958743;28;20060;-78
2023/05/13 03:47:26;;;;;;;18.75;8.85;;;;;;;;;;4949282;28;20551;-79
2023/05/13 03:49:58;;;;;;;18.30;8.43;;;;;;;;;;4932812;28;20047;-80
2023/05/13 03:52:25;;;;;;;12.48;7.80;;;;;;;;;;4965070;28;20071;-79
2023/05/13 03:54:52;;;;;;;12.82;7.32;;;;;;;;;;4949757;28;20050;-80
2023/05/13 03:57:18;;;;;;;12.77;7.28;;;;;;;;;;4918700;29;20079;-80
2023/05/13 03:59:45;;;;;;;12.70;6.68;;;;;;;;;;4949733;28;20078;-79
2023/05/13 04:02:12;;;;;;;12.35;7.07;;;;;;;;;;4953733;28;20074;-80
2023/05/13 04:04:38;;;;;;;13.43;7.00;;;;;;;;;;4970887;28;20071;-79
2023/05/13 04:07:05;;;;;;;11.07;6.40;;;;;;;;;;4938155;28;20097;-78
2023/05/13 04:09:31;;;;;;;9.52;5.72;;;;;;;;;;4934219;28;20091;-79
2023/05/13 04:11:58;;;;;;;10.75;5.88;;;;;;;;;;4934020;28;20047;-79
2023/05/13 04:14:25;;;;;;;9.40;6.03;;;;;;;;;;4935777;28;20087;-79
2023/05/13 04:16:51;;;;;;;9.02;6.10;;;;;;;;;;4967856;28;20547;-80
2023/05/13 04:19:18;;;;;;;12.65;5.68;;;;;;;;;;4957210;28;20047;-78
2023/05/13 04:21:45;;;;;;;8.90;5.40;;;;;;;;;;4952893;28;20067;-79
2023/05/13 04:24:11;;;;;;;10.45;5.72;;;;;;;;;;4977796;28;20047;-78
2023/05/13 04:26:38;;;;;;;11.80;5.18;;;;;;;;;;4970755;28;20075;-80
2023/05/13 04:29:04;;;;;;;9.55;5.22;;;;;;;;;;4941856;28;20047;-78
2023/05/13 04:31:31;;;;;;;7.90;4.85;;;;;;;;;;4985158;28;20062;-80
2023/05/13 04:33:58;;;;;;;8.30;4.70;;;;;;;;;;4968851;28;20460;-80
2023/05/13 04:36:25;;;;;;;8.23;5.45;;;;;;;;;;4970477;28;20470;-78
2023/05/13 04:38:54;;;;;;;11.45;4.90;;;;;;;;;;4968615;28;20055;-79
2023/05/13 04:41:21;;;;;;;8.13;4.93;;;;;;;;;;4952349;28;20524;-79
2023/05/13 04:43:48;;;;;;;8.35;5.05;;;;;;;;;;4948563;28;20481;-79
2023/05/13 04:46:14;;;;;;;14.80;5.43;;;;;;;;;;4983455;28;20374;-79
2023/05/13 04:48:41;;;;;;;10.27;5.95;;;;;;;;;;4983620;28;20075;-78
2023/05/13 04:51:09;;;;;;;11.90;5.57;;;;;;;;;;4951384;28;20061;-79
2023/05/13 04:53:36;;;;;;;10.25;5.93;;;;;;;;;;4948457;28;20040;-77
2023/05/13 04:56:04;;;;;;;13.07;5.82;;;;;;;;;;4951893;28;20043;-79
2023/05/13 04:58:31;;;;;;;9.60;6.07;;;;;;;;;;4957967;28;20039;-80
2023/05/13 05:00:57;;;;;;;10.20;6.47;;;;;;;;;;4971612;28;20051;-78
2023/05/13 05:03:24;;;;;;;10.00;6.35;;;;;;;;;;4969460;28;20040;-78
2023/05/13 05:05:51;;;;;;;8.75;5.97;;;;;;;;;;4947645;28;20055;-78
2023/05/13 05:08:19;;;;;;;11.40;6.65;;;;;;;;;;4959022;28;20043;-79
2023/05/13 05:10:47;;;;;;;10.85;6.00;;;;;;;;;;4966551;28;20081;-78
2023/05/13 05:13:14;;;;;;;11.25;6.25;;;;;;;;;;4935253;28;20074;-78
2023/05/13 05:15:42;;;;;;;9.73;5.75;;;;;;;;;;4948102;28;20044;-79
2023/05/13 05:18:09;;;;;;;9.38;5.40;;;;;;;;;;4936381;28;20043;-81
2023/05/13 05:20:38;;;;;;;9.75;4.88;;;;;;;;;;4966867;28;20059;-80
2023/05/13 05:23:09;;;;;;;9.55;4.95;;;;;;;;;;4980116;28;20050;-78
2023/05/13 05:25:37;;;;;;;9.27;4.70;;;;;;;;;;4937245;28;20054;-80
2023/05/13 05:28:04;;;;;;;7.18;4.15;;;;;;;;;;4939033;28;20058;-80
2023/05/13 05:30:38;;;;;;;6.43;4.15;;;;;;;;;;4977370;28;20427;-82
2023/05/13 05:33:09;;;;;;;7.97;4.53;;;;;;;;;;4955678;28;20245;-81
2023/05/13 05:35:38;;;;;;;8.15;4.25;;;;;;;;;;4954704;28;20050;-79
2023/05/13 05:38:10;;;;;;;7.10;4.15;;;;;;;;;;4952824;28;20109;-79
2023/05/13 05:40:41;;;;;;;5.68;3.90;;;;;;;;;;4973279;28;20050;-79
2023/05/13 05:43:09;;;;;;;6.32;3.38;;;;;;;;;;4971943;28;20052;-80
2023/05/13 05:45:37;;;;;;;8.20;3.83;;;;;;;;;;4947091;28;20059;-81
2023/05/13 05:48:05;;;;;;;5.25;3.55;;;;;;;;;;4954961;28;20073;-80
2023/05/13 05:50:32;;;;;;;5.20;3.63;;;;;;;;;;4979015;28;20055;-81
2023/05/13 05:53:05;;;;;;;9.55;4.15;;;;;;;;;;4963946;28;20063;-79
2023/05/13 05:55:35;;;;;;;6.07;3.55;;;;;;;;;;4973637;28;20067;-80
2023/05/13 05:58:04;;;;;;;5.63;3.80;;;;;;;;;;4940241;28;20063;-81
2023/05/13 06:00:33;;;;;;;6.57;3.75;;;;;;;;;;4938449;28;20047;-80
2023/05/13 06:02:59;;;;;;;6.53;3.65;;;;;;;;;;4979464;28;20050;-78
2023/05/13 06:05:26;;;;;;;6.97;4.07;;;;;;;;;;4970277;28;20043;-79
2023/05/13 06:07:53;;;;;;;6.30;3.72;;;;;;;;;;4937921;28;20062;-81
2023/05/13 06:10:19;;;;;;;5.60;3.50;;;;;;;;;;4970084;28;20051;-79
2023/05/13 06:12:46;;;;;;;4.40;3.15;;;;;;;;;;4970250;28;20717;-80
2023/05/13 06:15:13;;;;;;;10.30;3.28;;;;;;;;;;4956971;28;20054;-78
2023/05/13 06:17:40;;;;;;;8.65;3.67;;;;;;;;;;4953536;28;20056;-81
2023/05/13 06:20:08;;;;;;;6.28;3.28;;;;;;;;;;4957694;28;20066;-78
2023/05/13 06:22:35;;;;;;;10.73;3.33;;;;;;;;;;4942071;29;20059;-80
2023/05/13 06:25:02;;;;;;;4.43;3.00;;;;;;;;;;4963726;28;20113;-80
2023/05/13 06:27:28;;;;;;;4.45;3.03;;;;;;;;;;4958893;28;20071;-79
2023/05/13 06:29:55;;;;;;;5.28;3.17;;;;;;;;;;4941122;28;20165;-82
2023/05/13 06:32:21;;;;;;;6.57;3.58;;;;;;;;;;4987370;28;20587;-82
2023/05/13 06:34:50;;;;;;;4.25;2.90;;;;;;;;;;4970018;28;20039;-80
2023/05/13 06:37:19;;;;;;;4.68;3.03;;;;;;;;;;4957458;28;20043;-79
2023/05/13 06:39:46;;;;;;;6.22;3.55;;;;;;;;;;4993153;28;20090;-80
2023/05/13 06:42:13;;;;;;;6.95;3.08;;;;;;;;;;4996613;28;20043;-81
2023/05/13 06:44:46;;;;;;;5.15;3.28;;;;;;;;;;4989229;28;20051;-80
2023/05/13 06:47:14;;;;;;;4.22;3.03;;;;;;;;;;4971923;28;20040;-79
2023/05/13 06:49:42;;;;;;;3.67;2.80;;;;;;;;;;4972108;28;20039;-79
2023/05/13 06:52:09;;;;;;;4.28;2.83;;;;;;;;;;4970101;28;20115;-81
2023/05/13 06:54:35;;;;;;;4.35;2.90;;;;;;;;;;4952561;28;20047;-80
2023/05/13 06:57:04;;;;;;;5.32;3.03;;;;;;;;;;4952272;28;20043;-79
2023/05/13 06:59:31;;;;;;;9.02;3.33;;;;;;;;;;4977634;28;20043;-80
2023/05/13 07:02:00;;;;;;;4.57;2.88;;;;;;;;;;4974202;28;20051;-81
2023/05/13 07:04:29;;;;;;;5.05;2.65;;;;;;;;;;4946569;28;20599;-81
2023/05/13 07:07:03;;;;;;;5.32;2.97;;;;;;;;;;4950055;28;20039;-81
2023/05/13 07:09:29;;;;;;;6.03;3.35;;;;;;;;;;4953071;28;20621;-78
2023/05/13 07:11:56;;;;;;;4.93;2.65;;;;;;;;;;4952454;28;20043;-79
2023/05/13 07:14:24;;;;;;;4.18;2.75;;;;;;;;;;4987325;28;20043;-79
2023/05/13 07:16:51;;;;;;;4.88;2.80;;;;;;;;;;4956937;28;20583;-82
2023/05/13 07:19:18;;;;;;;7.85;2.28;;;;;;;;;;4978561;28;20047;-78
2023/05/13 07:21:45;;;;;;;4.68;2.65;;;;;;;;;;4952912;28;20046;-82
2023/05/13 07:24:13;;;;;;;3.85;2.38;;;;;;;;;;4939650;28;20109;-82
2023/05/13 07:26:40;;;;;;;4.47;2.65;;;;;;;;;;4953935;28;20039;-80
2023/05/13 07:29:07;;;;;;;5.57;2.45;;;;;;;;;;4939706;28;20108;-80
2023/05/13 07:31:34;;;;;;;7.00;2.45;;;;;;;;;;4971371;28;20057;-80
2023/05/13 07:34:00;;;;;;;3.03;1.67;;;;;;;;;;4955469;28;20061;-81
2023/05/13 07:36:27;;;;;;;6.15;1.92;;;;;;;;;;4963797;28;20057;-78
2023/05/13 07:38:53;;;;;;;4.38;2.20;;;;;;;;;;4968506;28;20039;-82
2023/05/13 07:41:20;;;;;;;3.03;1.90;;;;;;;;;;4967992;28;20051;-84
2023/05/13 07:43:47;;;;;;;3.25;1.85;;;;;;;;;;4961022;28;20047;-82
2023/05/13 07:46:14;;;;;;;5.00;2.58;;;;;;;;;;4962821;28;20058;-79
2023/05/13 07:48:40;;;;;;;3.90;2.05;;;;;;;;;;4957956;28;20047;-81
2023/05/13 07:51:07;;;;;;;3.22;2.00;;;;;;;;;;4942897;28;20055;-79
2023/05/13 07:53:35;;;;;;;3.63;2.22;;;;;;;;;;4978735;28;20070;-80
2023/05/13 07:56:02;;;;;;;3.97;2.33;;;;;;;;;;4959423;28;20055;-78
2023/05/13 07:58:29;;;;;;;7.30;2.50;;;;;;;;;;4970147;28;20207;-84
2023/05/13 08:00:55;;;;;;;3.08;2.13;;;;;;;;;;4955909;28;20055;-79
2023/05/13 08:03:22;;;;;;;4.22;2.20;;;;;;;;;;4983502;28;20075;-81
2023/05/13 08:05:49;;;;;;;3.90;2.10;;;;;;;;;;4972969;28;20207;-81
2023/05/13 08:08:15;;;;;;;9.30;2.35;;;;;;;;;;4973034;28;20065;-82
2023/05/13 08:10:42;;;;;;;4.03;2.00;;;;;;;;;;4957234;28;20123;-81
2023/05/13 08:13:09;;;;;;;2.25;1.98;;;;;;;;;;4975929;28;20051;-83
2023/05/13 08:15:36;;;;;;;7.50;2.70;;;;;;;;;;4967785;28;20119;-80
2023/05/13 08:18:03;;;;;;;4.50;2.40;;;;;;;;;;4946008;28;20043;-81
2023/05/13 08:20:29;;;;;;;6.13;2.55;;;;;;;;;;4953202;28;20082;-82
2023/05/13 08:22:57;;;;;;;4.00;2.13;;;;;;;;;;4967729;28;20850;-81
2023/05/13 08:25:23;;;;;;;4.15;2.67;;;;;;;;;;4972819;28;20050;-79
2023/05/13 08:27:50;;;;;;;4.20;2.10;;;;;;;;;;4971877;28;20062;-82
2023/05/13 08:30:17;;;;;;;4.57;2.55;;;;;;;;;;4959404;28;20055;-83
2023/05/13 08:32:43;;;;;;;4.15;2.35;;;;;;;;;;4965706;28;20039;-83
2023/05/13 08:35:10;;;;;;;4.25;2.50;;;;;;;;;;4963080;28;20146;-83
2023/05/13 08:37:37;;;;;;;3.53;2.35;;;;;;;;;;4953104;28;20043;-82
2023/05/13 08:40:04;;;;;;;5.50;2.25;;;;;;;;;;4952481;28;20101;-82
2023/05/13 08:42:32;;;;;;;4.53;2.55;;;;;;;;;;4960207;28;20054;-83
2023/05/13 08:45:02;;;;;;;5.28;2.65;;;;;;;;;;4959882;28;20111;-83
2023/05/13 08:47:35;;;;;;;6.43;2.55;;;;;;;;;;4960493;28;20048;-83
2023/05/13 08:50:02;;;;;;;5.32;2.70;;;;;;;;;;4970095;28;20484;-82
2023/05/13 08:52:30;;;;;;;4.00;2.55;;;;;;;;;;4968920;28;20054;-82
2023/05/13 08:54:58;;;;;;;5.53;2.63;;;;;;;;;;4952934;28;20051;-81
2023/05/13 08:57:25;;;;;;;9.60;2.72;;;;;;;;;;4963425;28;20516;-73
2023/05/13 08:59:51;;;;;;;3.15;2.20;;;;;;;;;;4959332;28;20053;-79
2023/05/13 09:02:18;;;;;;;4.38;2.40;;;;;;;;;;4949614;28;20518;-81
2023/05/13 09:04:45;;;;;;;3.53;2.50;;;;;;;;;;4972982;28;20130;-80
2023/05/13 09:07:11;;;;;;;5.60;2.42;;;;;;;;;;4969793;28;20051;-80
2023/05/13 09:09:38;;;;;;;6.43;2.45;;;;;;;;;;4963900;28;20082;-78
2023/05/13 09:12:05;;;;;;;4.00;2.35;;;;;;;;;;4964684;28;20114;-80
2023/05/13 09:14:31;;;;;;;4.65;2.78;;;;;;;;;;4956057;28;20481;-80
2023/05/13 09:17:00;;;;;;;3.08;2.25;;;;;;;;;;4950574;28;20055;-80
2023/05/13 09:19:26;;;;;;;6.78;2.38;;;;;;;;;;4946838;28;20530;-80
2023/05/13 09:21:53;;;;;;;4.93;2.08;;;;;;;;;;4964609;28;20880;-79
2023/05/13 09:24:20;;;;;;;3.53;2.28;;;;;;;;;;4962941;28;20058;-80
2023/05/13 09:26:48;;;;;;;2.78;1.80;;;;;;;;;;4963011;28;20653;-80
2023/05/13 09:29:18;;;;;;;9.52;2.40;;;;;;;;;;4961434;28;20057;-79
2023/05/13 09:31:47;;;;;;;3.78;2.13;;;;;;;;;;4943463;28;20050;-80
2023/05/13 09:34:14;;;;;;;3.30;2.10;;;;;;;;;;4946282;28;20055;-81
2023/05/13 09:36:41;;;;;;;2.65;1.90;;;;;;;;;;4962209;28;20115;-80
2023/05/13 09:39:10;;;;;;;4.40;2.05;;;;;;;;;;4948227;28;20118;-80
2023/05/13 09:41:36;;;;;;;3.92;2.10;;;;;;;;;;4970415;28;20139;-80
2023/05/13 09:44:03;;;;;;;5.85;2.13;;;;;;;;;;4951492;28;20142;-80
2023/05/13 09:46:31;;;;;;;4.57;2.28;;;;;;;;;;4938606;28;20054;-79
2023/05/13 09:48:58;;;;;;;5.57;2.10;;;;;;;;;;4953985;28;20081;-78
2023/05/13 09:51:29;;;;;;;3.28;2.00;;;;;;;;;;4972228;28;20527;-78
2023/05/13 09:54:05;;;;;;;5.78;2.30;;;;;;;;;;4970642;28;20069;-80
2023/05/13 09:56:34;;;;;;;8.07;2.03;;;;;;;;;;4954104;28;20118;-79
2023/05/13 09:59:01;;;;;;;5.22;2.10;;;;;;;;;;4962216;28;20039;-80
2023/05/13 10:01:28;;;;;;;7.82;2.60;;;;;;;;;;4972805;28;20105;-78
2023/05/13 10:03:55;;;;;;;3.90;1.92;;;;;;;;;;4955363;28;20044;-79
2023/05/13 10:06:23;;;;;;;7.32;2.17;;;;;;;;;;4953901;28;20066;-80
2023/05/13 10:08:51;;;;;;;4.07;2.05;;;;;;;;;;4967610;28;20043;-81
2023/05/13 10:11:18;;;;;;;3.63;2.15;;;;;;;;;;4952539;28;20147;-80
2023/05/13 10:13:48;;;;;;;7.65;2.60;;;;;;;;;;4955220;28;20154;-78
2023/05/13 10:16:15;;;;;;;6.18;2.00;;;;;;;;;;4948463;28;20095;-76
2023/05/13 10:18:42;;;;;;;4.95;2.60;;;;;;;;;;4951140;28;20042;-77
2023/05/13 10:21:08;;;;;;;4.13;1.98;;;;;;;;;;4959907;28;20055;-80
2023/05/13 10:23:36;;;;;;;3.38;2.10;;;;;;;;;;4950706;28;20061;-76
2023/05/13 10:26:02;;;;;;;6.45;2.60;;;;;;;;;;4974648;28;20059;-77
2023/05/13 10:28:29;;;;;;;6.28;2.70;;;;;;;;;;4977499;28;20130;-80
2023/05/13 10:30:56;;;;;;;4.95;2.65;;;;;;;;;;4967410;28;20086;-79
2023/05/13 10:33:23;;;;;;;10.77;3.05;;;;;;;;;;4983769;28;20054;-81
2023/05/13 10:36:00;;;;;;;8.23;2.63;;;;;;;;;;4960753;28;20057;-80
2023/05/13 10:38:30;;;;;;;5.10;2.75;;;;;;;;;;4951536;28;20508;-80
2023/05/13 10:41:29;;;;;;;4.55;2.80;;;;;;;;;;4946045;28;20634;-82
2023/05/13 10:43:57;;;;;;;8.68;2.40;;;;;;;;;;4920417;28;20580;-81
2023/05/13 10:46:24;;;;;;;4.65;2.35;;;;;;;;;;4959694;28;20043;-78
2023/05/13 10:48:55;;;;;;;8.60;2.58;;;;;;;;;;4942885;28;20075;-78
2023/05/13 10:51:23;;;;;;;7.15;2.70;;;;;;;;;;4953855;28;20412;-81
2023/05/13 10:53:50;;;;;;;9.73;2.50;;;;;;;;;;4950663;28;20536;-81
2023/05/13 10:56:20;;;;;;;4.32;2.50;;;;;;;;;;4936914;28;20051;-81
2023/05/13 10:59:01;;;;;;;4.97;2.78;;;;;;;;;;4967576;28;20080;-78
2023/05/13 11:01:28;;;;;;;6.95;2.72;;;;;;;;;;4960615;28;20761;-80
2023/05/13 11:04:02;;;;;;;4.47;2.67;;;;;;;;;;4965324;28;20064;-81
2023/05/13 11:06:33;;;;;;;9.10;3.00;;;;;;;;;;4948853;28;20094;-84
2023/05/13 11:08:59;;;;;;;6.43;2.78;;;;;;;;;;4960264;28;20054;-81
2023/05/13 11:11:31;;;;;;;6.72;3.42;;;;;;;;;;4945864;28;20055;-78
2023/05/13 11:13:58;;;;;;;5.07;3.35;;;;;;;;;;4931844;28;20102;-79
2023/05/13 11:16:24;;;;;;;6.80;3.40;;;;;;;;;;4979247;28;20055;-78
2023/05/13 11:18:51;;;;;;;8.65;3.13;;;;;;;;;;4962582;28;20847;-80
2023/05/13 11:21:51;;;;;;;5.65;3.50;;;;;;;;;;4976354;28;20070;-80
2023/05/13 11:24:19;;;;;;;6.43;3.70;;;;;;;;;;4918948;28;20058;-77
2023/05/13 11:26:48;;;;;;;5.50;3.65;;;;;;;;;;4936516;28;20050;-80
2023/05/13 11:29:26;;;;;;;5.30;3.65;;;;;;;;;;4967120;28;20046;-78
2023/05/13 11:31:55;;;;;;;6.65;3.30;;;;;;;;;;4951007;28;20075;-79
2023/05/13 11:34:25;;;;;;;4.60;3.03;;;;;;;;;;4955771;28;20044;-79
2023/05/13 11:37:04;;;;;;;7.35;2.90;;;;;;;;;;4963814;28;20067;-79
2023/05/13 11:39:31;;;;;;;5.47;3.10;;;;;;;;;;4963482;28;20047;-82
2023/05/13 11:42:00;;;;;;;4.40;2.55;;;;;;;;;;4979440;28;20067;-81
2023/05/13 11:44:27;;;;;;;6.00;2.55;;;;;;;;;;4982186;28;20362;-79
2023/05/13 11:46:57;;;;;;;3.67;2.33;;;;;;;;;;4959635;28;20078;-80
2023/05/13 11:49:36;;;;;;;5.35;2.38;;;;;;;;;;4965595;28;20050;-80
2023/05/13 11:52:05;;;;;;;4.35;2.67;;;;;;;;;;4954090;28;20083;-79
2023/05/13 11:54:39;;;;;;;5.00;2.60;;;;;;;;;;4955767;28;20054;-80
2023/05/13 11:57:13;;;;;;;6.20;2.30;;;;;;;;;;4970434;28;20134;-80
2023/05/13 11:59:39;;;;;;;8.02;2.55;;;;;;;;;;4949983;28;20150;-81
2023/05/13 12:02:13;;;;;;;5.50;2.60;;;;;;;;;;4972172;28;20051;-82
2023/05/13 12:04:40;;;;;;;5.57;2.35;;;;;;;;;;4980952;28;20462;-78
2023/05/13 12:07:10;;;;;;;5.50;2.40;;;;;;;;;;4962866;28;20051;-79
2023/05/13 12:09:36;;;;;;;7.95;2.85;;;;;;;;;;4950626;28;20090;-78
2023/05/13 12:12:03;;;;;;;6.28;2.40;;;;;;;;;;4949988;28;20055;-81
2023/05/13 12:14:30;;;;;;;3.72;2.35;;;;;;;;;;4940971;28;21459;-81
2023/05/13 12:16:56;;;;;;;4.82;2.65;;;;;;;;;;4953080;28;20266;-80
2023/05/13 12:19:23;;;;;;;5.35;2.72;;;;;;;;;;4948985;28;20057;-77
2023/05/13 12:21:50;;;;;;;4.53;2.78;;;;;;;;;;4947074;28;20043;-78
2023/05/13 12:24:20;;;;;;;8.85;2.83;;;;;;;;;;4944586;28;20048;-79
2023/05/13 12:26:47;;;;;;;5.57;2.55;;;;;;;;;;4939421;28;20590;-80
2023/05/13 12:29:14;;;;;;;4.78;2.55;;;;;;;;;;4949495;28;20110;-80
2023/05/13 12:31:41;;;;;;;4.45;2.72;;;;;;;;;;4971936;28;20047;-79
2023/05/13 12:34:08;;;;;;;3.03;2.47;;;;;;;;;;4973446;28;20058;-78
2023/05/13 12:36:38;;;;;;;6.55;2.65;;;;;;;;;;4968034;28;20075;-80
2023/05/13 12:39:08;;;;;;;3.88;2.78;;;;;;;;;;4952538;28;20074;-79
2023/05/13 12:41:35;;;;;;;4.38;2.80;;;;;;;;;;4966425;28;20058;-78
2023/05/13 12:44:01;;;;;;;4.32;3.03;;;;;;;;;;4952861;28;20527;-81
2023/05/13 12:46:28;;;;;;;5.22;2.70;;;;;;;;;;4948739;28;20051;-79
2023/05/13 12:48:56;;;;;;;5.07;3.10;;;;;;;;;;4957115;28;20054;-80
2023/05/13 12:51:22;;;;;;;7.30;2.90;;;;;;;;;;4950862;28;20043;-83
2023/05/13 12:53:49;;;;;;;6.30;3.00;;;;;;;;;;4964396;28;20138;-85
2023/05/13 12:56:15;;;;;;;7.85;3.10;;;;;;;;;;4968655;28;20070;-83
2023/05/13 12:58:42;;;;;;;4.50;2.92;;;;;;;;;;4964917;28;20048;-80
2023/05/13 13:01:09;;;;;;;5.53;3.50;;;;;;;;;;4978681;28;20043;-75
2023/05/13 13:03:35;;;;;;;4.47;3.20;;;;;;;;;;4956119;28;20487;-80
2023/05/13 13:06:02;;;;;;;5.82;3.17;;;;;;;;;;4963147;28;20058;-81
2023/05/13 13:08:29;;;;;;;6.00;3.00;;;;;;;;;;4952059;28;20047;-80
2023/05/13 13:10:57;;;;;;;4.70;3.38;;;;;;;;;;4965380;28;20818;-80
2023/05/13 13:13:24;;;;;;;4.60;2.95;;;;;;;;;;4970011;28;20054;-81
2023/05/13 13:15:50;;;;;;;5.28;3.28;;;;;;;;;;4962681;28;20075;-82
2023/05/13 13:18:17;;;;;;;4.00;3.13;;;;;;;;;;4948771;28;20043;-81
2023/05/13 13:20:44;;;;;;;5.50;2.72;;;;;;;;;;4950616;28;20059;-81
2023/05/13 13:23:10;;;;;;;6.10;2.20;;;;;;;;;;4949409;28;20051;-81
2023/05/13 13:25:37;;;;;;;3.08;2.10;;;;;;;;;;4949159;28;20467;-80
2023/05/13 13:28:04;;;;;;;3.88;1.92;;;;;;;;;;4951293;28;20094;-82
2023/05/13 13:30:30;;;;;;;4.50;1.95;;;;;;;;;;4950685;28;20047;-78
2023/05/13 13:32:57;;;;;;;4.72;1.92;;;;;;;;;;4952261;28;20055;-80
2023/05/13 13:35:24;;;;;;;6.43;1.85;;;;;;;;;;4950502;28;20051;-78
2023/05/13 13:37:50;;;;;;;4.85;1.90;;;;;;;;;;4949588;28;20126;-80
2023/05/13 13:40:18;;;;;;;8.50;1.70;;;;;;;;;;4951456;28;20039;-82
2023/05/13 13:42:45;;;;;;;4.18;1.70;;;;;;;;;;4949628;28;20412;-82
2023/05/13 13:45:12;;;;;;;2.50;1.50;;;;;;;;;;4937510;28;20051;-83
2023/05/13 13:47:39;;;;;;;4.50;1.70;;;;;;;;;;4953309;28;20134;-78
2023/05/13 13:50:06;;;;;;;3.03;1.40;;;;;;;;;;4952680;28;20047;-85
2023/05/13 13:52:32;;;;;;;2.47;1.42;;;;;;;;;;4954544;28;20044;-82
2023/05/13 13:54:59;;;;;;;2.70;1.50;;;;;;;;;;4956771;28;20055;-82
2023/05/13 13:57:26;;;;;;;7.43;1.40;;;;;;;;;;4971873;28;20063;-82
2023/05/13 13:59:52;;;;;;;6.97;1.30;;;;;;;;;;4954442;28;20050;-81
2023/05/13 14:02:19;;;;;;;4.13;1.40;;;;;;;;;;4976443;28;20063;-83
2023/05/13 14:04:45;;;;;;;1.83;1.30;;;;;;;;;;4984394;28;20050;-83
2023/05/13 14:07:12;;;;;;;3.67;1.70;;;;;;;;;;4974741;28;20059;-83
2023/05/13 14:09:38;;;;;;;1.35;1.05;;;;;;;;;;4955511;28;20090;-82
2023/05/13 14:12:05;;;;;;;2.65;1.10;;;;;;;;;;4988198;28;20046;-82
2023/05/13 14:14:32;;;;;;;5.53;1.20;;;;;;;;;;4987837;28;20057;-82
2023/05/13 14:16:58;;;;;;;2.17;1.25;;;;;;;;;;4971652;28;20434;-80
2023/05/13 14:19:25;;;;;;;1.35;0.95;;;;;;;;;;4973714;28;20042;-78
2023/05/13 14:21:53;;;;;;;2.28;1.00;;;;;;;;;;4973220;28;20047;-80
2023/05/13 14:24:21;;;;;;;4.28;1.10;;;;;;;;;;4973393;28;20515;-81
2023/05/13 14:26:48;;;;;;;2.10;1.02;;;;;;;;;;4990175;28;20062;-79
2023/05/13 14:29:14;;;;;;;3.72;1.17;;;;;;;;;;4953039;28;20051;-84
2023/05/13 14:31:41;;;;;;;1.40;1.10;;;;;;;;;;4953900;28;20512;-85
2023/05/13 14:34:07;;;;;;;5.40;1.35;;;;;;;;;;4955477;28;20057;-83
2023/05/13 14:36:34;;;;;;;2.85;1.30;;;;;;;;;;4971505;28;20043;-81
2023/05/13 14:39:01;;;;;;;4.75;1.60;;;;;;;;;;4956367;28;20051;-81
2023/05/13 14:41:28;;;;;;;2.40;2.20;;;;;;;;;;4970712;28;20049;-83